createdAt,value
2022-12-09T00:01:13.260Z,74.88
2022-12-09T00:03:41.137Z,66.10
2022-12-09T00:06:10.386Z,60.53
2022-12-09T00:08:37.799Z,74.45
2022-12-09T00:11:05.296Z,67.07
2022-12-09T00:13:32.715Z,58.97
2022-12-09T00:16:00.181Z,79.22
2022-12-09T00:18:27.789Z,64.15
2022-12-09T00:20:55.240Z,60.90
2022-12-09T00:23:22.829Z,59.38
2022-12-09T00:25:50.209Z,65.32
2022-12-09T00:28:17.501Z,63.60
2022-12-09T00:30:44.815Z,67.78
2022-12-09T00:33:12.450Z,62.53
2022-12-09T00:35:39.963Z,57.08
2022-12-09T00:38:07.237Z,67.43
2022-12-09T00:40:34.685Z,64.35
2022-12-09T00:43:01.945Z,56.35
2022-12-09T00:45:29.249Z,57.83
2022-12-09T00:47:56.612Z,55.72
2022-12-09T00:50:23.943Z,63.08
2022-12-09T00:52:51.307Z,65.35
2022-12-09T00:55:18.820Z,62.33
2022-12-09T00:57:46.377Z,69.40
2022-12-09T01:00:13.803Z,64.28
2022-12-09T01:02:41.377Z,65.72
2022-12-09T01:05:09.331Z,65.80
2022-12-09T01:07:37.664Z,58.08
2022-12-09T01:10:06.271Z,58.75
2022-12-09T01:12:34.522Z,67.18
2022-12-09T01:15:02.186Z,63.72
2022-12-09T01:17:29.592Z,64.93
2022-12-09T01:19:56.960Z,84.78
2022-12-09T01:22:24.370Z,87.13
2022-12-09T01:24:51.892Z,101.40
2022-12-09T01:27:19.216Z,180.10
2022-12-09T01:29:46.513Z,104.78
2022-12-09T01:32:13.892Z,145.52
2022-12-09T01:34:41.283Z,134.10
2022-12-09T01:37:08.685Z,109.78
2022-12-09T01:39:36.247Z,106.32
2022-12-09T01:42:04.261Z,115.35
2022-12-09T01:44:32.834Z,126.60
2022-12-09T01:47:01.082Z,84.53
2022-12-09T01:49:28.413Z,97.28
2022-12-09T01:51:59.125Z,82.03
2022-12-09T01:54:26.732Z,57.00
2022-12-09T01:56:54.696Z,62.25
2022-12-09T01:59:22.905Z,77.20
2022-12-09T02:01:51.040Z,75.43
2022-12-09T02:04:18.961Z,69.60
2022-12-09T02:06:46.457Z,58.05
2022-12-09T02:09:13.875Z,61.17
2022-12-09T02:11:47.464Z,64.47
2022-12-09T02:14:14.738Z,58.05
2022-12-09T02:16:46.925Z,62.05
2022-12-09T02:19:20.388Z,56.55
2022-12-09T02:21:55.374Z,57.08
2022-12-09T02:24:41.430Z,56.83
2022-12-09T02:27:18.056Z,67.93
2022-12-09T02:29:51.189Z,61.75
2022-12-09T02:32:33.639Z,66.25
2022-12-09T02:35:11.380Z,61.70
2022-12-09T02:37:41.609Z,71.00
2022-12-09T02:40:14.765Z,75.13
2022-12-09T02:42:44.854Z,73.78
2022-12-09T02:45:12.532Z,72.20
2022-12-09T02:47:41.754Z,73.45
2022-12-09T02:50:13.225Z,70.70
2022-12-09T02:52:42.220Z,73.90
2022-12-09T02:55:10.951Z,81.50
2022-12-09T02:57:39.546Z,74.35
2022-12-09T03:00:07.881Z,72.00
2022-12-09T03:02:37.078Z,73.00
2022-12-09T03:05:04.790Z,78.47
2022-12-09T03:07:38.137Z,79.70
2022-12-09T03:10:11.977Z,70.00
2022-12-09T03:12:39.959Z,77.70
2022-12-09T03:15:08.552Z,71.03
2022-12-09T03:17:37.096Z,67.47
2022-12-09T03:20:08.116Z,76.80
2022-12-09T03:22:38.051Z,73.70
2022-12-09T03:25:11.644Z,69.10
2022-12-09T03:27:57.869Z,62.22
2022-12-09T03:30:25.430Z,67.18
2022-12-09T03:32:55.178Z,70.05
2022-12-09T03:35:25.321Z,71.63
2022-12-09T03:37:53.218Z,62.53
2022-12-09T03:40:24.452Z,68.93
2022-12-09T03:43:12.232Z,66.20
2022-12-09T03:45:40.239Z,67.00
2022-12-09T03:48:07.792Z,64.97
2022-12-09T03:50:37.260Z,62.25
2022-12-09T03:53:07.547Z,60.83
2022-12-09T03:55:39.772Z,63.85
2022-12-09T03:58:07.834Z,53.95
2022-12-09T04:00:37.656Z,53.28
2022-12-09T04:03:05.769Z,58.67
2022-12-09T04:05:33.844Z,66.97
2022-12-09T04:08:01.376Z,54.72
2022-12-09T04:10:29.055Z,47.25
2022-12-09T04:12:56.531Z,58.45
2022-12-09T04:15:23.818Z,61.28
2022-12-09T04:17:51.407Z,58.08
2022-12-09T04:20:18.855Z,58.50
2022-12-09T04:22:46.319Z,57.70
2022-12-09T04:25:13.777Z,57.88
2022-12-09T04:27:41.677Z,57.10
2022-12-09T04:30:09.667Z,60.38
2022-12-09T04:32:37.953Z,57.00
2022-12-09T04:35:05.568Z,50.35
2022-12-09T04:37:34.347Z,62.38
2022-12-09T04:40:01.659Z,53.63
2022-12-09T04:42:29.894Z,57.25
2022-12-09T04:44:57.247Z,56.45
2022-12-09T04:47:24.631Z,57.90
2022-12-09T04:49:51.932Z,63.58
2022-12-09T04:52:19.885Z,65.20
2022-12-09T04:54:47.511Z,58.30
2022-12-09T04:57:15.199Z,63.38
2022-12-09T04:59:42.758Z,79.03
2022-12-09T05:02:10.586Z,67.55
2022-12-09T05:04:38.399Z,73.70
2022-12-09T05:07:06.257Z,66.10
2022-12-09T05:09:34.458Z,67.05
2022-12-09T05:12:02.300Z,65.82
2022-12-09T05:14:29.751Z,68.75
2022-12-09T05:16:57.459Z,63.05
2022-12-09T05:19:24.980Z,70.15
2022-12-09T05:21:52.513Z,73.15
2022-12-09T05:24:20.103Z,78.32
2022-12-09T05:26:47.927Z,70.45
2022-12-09T05:29:20.814Z,62.17
2022-12-09T05:31:51.762Z,67.63
2022-12-09T05:34:19.845Z,60.03
2022-12-09T05:36:47.497Z,68.07
2022-12-09T05:39:15.224Z,65.40
2022-12-09T05:41:43.460Z,79.57
2022-12-09T05:44:14.647Z,69.22
2022-12-09T05:46:42.634Z,71.65
2022-12-09T05:49:10.356Z,71.72
2022-12-09T05:51:37.938Z,74.85
2022-12-09T05:54:06.471Z,62.45
2022-12-09T05:56:34.548Z,71.80
2022-12-09T05:59:02.523Z,67.03
2022-12-09T06:01:30.705Z,63.03
2022-12-09T06:03:58.617Z,75.32
2022-12-09T06:06:28.002Z,65.50
2022-12-09T06:08:57.858Z,73.60
2022-12-09T06:11:25.824Z,65.13
2022-12-09T06:13:53.638Z,73.28
2022-12-09T06:16:22.415Z,62.97
2022-12-09T06:18:50.576Z,68.03
2022-12-09T06:21:19.100Z,63.78
2022-12-09T06:23:46.945Z,67.75
2022-12-09T06:26:23.732Z,69.15
2022-12-09T06:28:51.476Z,78.20
2022-12-09T06:31:19.640Z,69.07
2022-12-09T06:33:56.331Z,69.97
2022-12-09T06:36:25.358Z,79.00
2022-12-09T06:38:53.380Z,71.30
2022-12-09T06:41:23.847Z,78.35
2022-12-09T06:43:51.598Z,67.75
2022-12-09T06:46:20.561Z,62.10
2022-12-09T06:48:48.287Z,70.15
2022-12-09T06:51:17.069Z,63.78
2022-12-09T06:53:44.872Z,65.80
2022-12-09T06:56:13.662Z,64.88
2022-12-09T06:58:42.237Z,67.75
2022-12-09T07:01:14.775Z,63.47
2022-12-09T07:03:48.569Z,61.25
2022-12-09T07:06:32.001Z,76.95
2022-12-09T07:09:01.181Z,63.97
2022-12-09T07:11:29.264Z,72.20
2022-12-09T07:13:56.907Z,67.97
2022-12-09T07:16:24.965Z,65.35
2022-12-09T07:18:52.781Z,67.78
2022-12-09T07:21:21.402Z,69.88
2022-12-09T07:23:49.226Z,66.45
2022-12-09T07:26:17.041Z,70.30
2022-12-09T07:28:44.917Z,114.60
2022-12-09T07:31:26.409Z,331.35
2022-12-09T07:36:23.576Z,71.28
2022-12-09T07:38:58.073Z,71.88
2022-12-09T07:41:25.928Z,69.88
2022-12-09T07:43:53.632Z,71.35
2022-12-09T07:46:22.611Z,69.82
2022-12-09T07:48:50.326Z,73.85
2022-12-09T07:51:18.016Z,72.88
2022-12-09T07:53:46.202Z,75.57
2022-12-09T07:56:14.930Z,84.55
2022-12-09T07:58:43.270Z,72.22
2022-12-09T08:01:13.350Z,83.25
2022-12-09T08:03:42.537Z,78.85
2022-12-09T08:06:14.018Z,84.50
2022-12-09T08:08:42.089Z,76.18
2022-12-09T08:11:10.174Z,79.78
2022-12-09T08:13:37.915Z,83.18
2022-12-09T08:16:06.300Z,77.28
2022-12-09T08:18:34.982Z,75.70
2022-12-09T08:21:13.945Z,72.68
2022-12-09T08:23:41.898Z,69.30
2022-12-09T08:26:10.502Z,77.00
2022-12-09T08:28:38.745Z,78.47
2022-12-09T08:31:10.305Z,78.32
2022-12-09T08:33:38.279Z,83.13
2022-12-09T08:36:10.250Z,82.75
2022-12-09T08:38:37.724Z,76.88
2022-12-09T08:41:13.463Z,81.50
2022-12-09T08:43:41.410Z,82.70
2022-12-09T08:46:09.508Z,79.32
2022-12-09T08:48:38.219Z,70.38
2022-12-09T08:51:05.903Z,74.05
2022-12-09T08:53:33.567Z,67.85
2022-12-09T08:56:01.320Z,62.13
2022-12-09T08:58:28.825Z,59.30
2022-12-09T09:00:56.738Z,56.25
2022-12-09T09:03:24.542Z,50.85
2022-12-09T09:05:52.396Z,56.38
2022-12-09T09:08:19.926Z,48.85
2022-12-09T09:10:47.785Z,41.45
2022-12-09T09:13:15.804Z,44.05
2022-12-09T09:15:43.648Z,44.65
2022-12-09T09:18:11.146Z,43.53
2022-12-09T09:20:39.090Z,45.63
2022-12-09T09:23:06.780Z,45.20
2022-12-09T09:25:34.653Z,42.40
2022-12-09T09:28:02.281Z,45.58
2022-12-09T09:30:29.909Z,41.92
2022-12-09T09:32:57.606Z,46.72
2022-12-09T09:35:25.304Z,42.17
2022-12-09T09:37:55.488Z,42.50
2022-12-09T09:40:23.455Z,39.17
2022-12-09T09:42:52.305Z,40.15
2022-12-09T09:45:24.104Z,35.17
2022-12-09T09:48:05.740Z,33.75
2022-12-09T09:53:03.282Z,40.70
2022-12-09T09:55:40.185Z,43.40
2022-12-09T09:58:13.769Z,42.40
2022-12-09T10:01:04.185Z,48.42
2022-12-09T10:03:31.908Z,45.42
2022-12-09T10:06:01.801Z,46.10
2022-12-09T10:08:32.741Z,52.13
2022-12-09T10:11:10.088Z,49.85
2022-12-09T10:13:46.229Z,131.68
2022-12-09T10:16:16.823Z,80.78
2022-12-09T10:19:08.065Z,54.95
2022-12-09T10:21:38.152Z,56.45
2022-12-09T10:24:15.035Z,56.25
2022-12-09T10:26:43.092Z,58.65
2022-12-09T10:29:13.611Z,56.35
2022-12-09T10:31:41.266Z,54.75
2022-12-09T10:34:10.082Z,49.40
2022-12-09T10:36:38.731Z,51.80
2022-12-09T10:39:06.199Z,51.83
2022-12-09T10:41:56.534Z,46.75
2022-12-09T10:44:25.410Z,47.95
2022-12-09T10:47:06.475Z,60.70
2022-12-09T10:49:35.830Z,47.13
2022-12-09T10:52:05.361Z,46.20
2022-12-09T10:54:40.948Z,50.42
2022-12-09T10:57:17.226Z,44.65
2022-12-09T10:59:58.626Z,47.33
2022-12-09T11:02:26.535Z,45.63
2022-12-09T11:04:54.700Z,45.58
2022-12-09T11:07:24.091Z,46.63
2022-12-09T11:09:57.694Z,47.38
2022-12-09T11:12:38.171Z,44.80
2022-12-09T11:15:07.659Z,47.63
2022-12-09T11:17:36.252Z,43.40
2022-12-09T11:20:08.401Z,44.40
2022-12-09T11:22:39.594Z,45.70
2022-12-09T11:25:13.930Z,48.58
2022-12-09T11:27:50.126Z,43.80
2022-12-09T11:30:23.269Z,43.45
2022-12-09T11:33:00.776Z,45.50
2022-12-09T11:35:44.077Z,47.65
2022-12-09T11:38:28.849Z,46.58
2022-12-09T11:41:08.119Z,47.25
2022-12-09T11:43:44.332Z,49.92
2022-12-09T11:46:14.444Z,53.17
2022-12-09T11:48:47.907Z,50.15
2022-12-09T11:51:35.388Z,56.78
2022-12-09T11:54:06.533Z,56.05
2022-12-09T11:56:34.439Z,55.47
2022-12-09T11:59:04.525Z,52.53
2022-12-09T12:01:34.738Z,53.40
2022-12-09T12:04:05.658Z,48.78
2022-12-09T12:06:42.017Z,44.63
2022-12-09T12:09:14.803Z,49.80
2022-12-09T12:11:45.948Z,52.55
2022-12-09T12:14:17.415Z,56.35
2022-12-09T12:16:53.339Z,53.85
2022-12-09T12:19:35.388Z,55.95
2022-12-09T12:22:02.631Z,51.20
2022-12-09T12:24:41.900Z,51.72
2022-12-09T12:27:09.150Z,53.00
2022-12-09T12:29:36.390Z,57.80
2022-12-09T12:32:15.870Z,55.67
2022-12-09T12:34:43.113Z,54.92
2022-12-09T12:37:18.426Z,56.45
2022-12-09T12:40:04.649Z,55.25
2022-12-09T12:42:32.020Z,51.92
2022-12-09T12:45:17.873Z,56.20
2022-12-09T12:47:45.085Z,56.55
2022-12-09T12:50:12.409Z,69.15
2022-12-09T12:52:55.686Z,61.25
2022-12-09T12:55:23.935Z,60.60
2022-12-09T12:58:06.007Z,71.30
2022-12-09T13:00:37.449Z,82.75
2022-12-09T13:03:16.909Z,84.13
2022-12-09T13:05:45.468Z,71.47
2022-12-09T13:08:18.145Z,83.35
2022-12-09T13:10:47.855Z,81.38
2022-12-09T13:13:23.147Z,76.07
2022-12-09T13:15:52.303Z,74.72
2022-12-09T13:18:27.720Z,75.25
2022-12-09T13:21:02.171Z,80.50
2022-12-09T13:23:41.793Z,80.28
2022-12-09T13:26:27.615Z,84.75
2022-12-09T13:28:58.981Z,82.10
2022-12-09T13:31:29.747Z,91.10
2022-12-09T13:34:05.661Z,74.03
2022-12-09T13:36:42.158Z,79.72
2022-12-09T13:39:12.901Z,83.18
2022-12-09T13:42:03.424Z,85.83
2022-12-09T13:44:32.143Z,74.72
2022-12-09T13:47:13.854Z,92.97
2022-12-09T13:52:08.283Z,77.43
2022-12-09T13:54:39.234Z,79.10
2022-12-09T13:57:09.568Z,82.13
2022-12-09T13:59:43.271Z,81.70
2022-12-09T14:02:13.632Z,79.15
2022-12-09T14:04:46.532Z,75.30
2022-12-09T14:07:16.797Z,84.25
2022-12-09T14:09:47.210Z,82.80
2022-12-09T14:12:26.703Z,83.47
2022-12-09T14:15:14.196Z,83.10
2022-12-09T14:17:41.527Z,77.03
2022-12-09T14:20:25.169Z,87.65
2022-12-09T14:23:07.748Z,79.85
2022-12-09T14:25:35.037Z,94.20
2022-12-09T14:28:11.416Z,86.63
2022-12-09T14:30:41.467Z,96.90
2022-12-09T14:33:27.904Z,186.50
2022-12-09T14:35:57.188Z,89.22
2022-12-09T14:38:24.441Z,92.63
2022-12-09T14:41:04.473Z,82.53
2022-12-09T14:43:37.878Z,97.38
2022-12-09T14:46:25.634Z,100.30
2022-12-09T14:48:57.855Z,88.60
2022-12-09T14:51:39.548Z,95.65
2022-12-09T14:56:34.819Z,83.43
2022-12-09T14:59:07.209Z,92.25
2022-12-09T15:01:56.293Z,88.97
2022-12-09T15:04:26.906Z,97.57
2022-12-09T15:07:12.606Z,94.30
2022-12-09T15:09:49.914Z,111.82
2022-12-09T15:12:17.844Z,104.68
2022-12-09T15:14:45.661Z,95.63
2022-12-09T15:17:43.461Z,106.55
2022-12-09T15:20:27.854Z,101.00
2022-12-09T15:22:59.940Z,93.72
2022-12-09T15:25:27.452Z,95.20
2022-12-09T15:28:14.239Z,95.45
2022-12-09T15:30:41.644Z,91.10
2022-12-09T15:33:17.123Z,100.78
2022-12-09T15:35:50.301Z,102.60
2022-12-09T15:38:17.789Z,101.15
2022-12-09T15:41:06.049Z,105.15
2022-12-09T15:43:34.725Z,103.47
2022-12-09T15:46:02.114Z,110.43
2022-12-09T15:48:35.026Z,343.92
2022-12-09T15:51:06.034Z,108.57
2022-12-09T15:53:39.666Z,107.90
2022-12-09T15:56:13.089Z,103.45
2022-12-09T15:58:41.686Z,111.53
2022-12-09T16:01:09.445Z,101.32
2022-12-09T16:03:37.277Z,104.05
2022-12-09T16:06:05.929Z,96.20
2022-12-09T16:08:38.812Z,107.85
2022-12-09T16:11:06.431Z,112.18
2022-12-09T16:13:33.871Z,105.47
2022-12-09T16:16:02.401Z,109.38
2022-12-09T16:18:50.029Z,101.15
2022-12-09T16:21:17.300Z,105.88
2022-12-09T16:23:45.766Z,94.70
2022-12-09T16:26:19.004Z,107.85
2022-12-09T16:28:54.076Z,95.80
2022-12-09T16:31:22.593Z,99.53
2022-12-09T16:33:50.786Z,102.40
2022-12-09T16:36:22.833Z,100.93
2022-12-09T16:39:12.577Z,102.05
2022-12-09T16:41:52.166Z,99.20
2022-12-09T16:44:20.811Z,112.13
2022-12-09T16:46:48.081Z,108.68
2022-12-09T16:49:15.515Z,105.55
2022-12-09T16:51:42.882Z,107.60
2022-12-09T16:54:19.661Z,113.28
2022-12-09T16:56:48.073Z,108.40
2022-12-09T16:59:15.330Z,524.17
2022-12-09T17:01:43.202Z,112.53
2022-12-09T17:04:19.344Z,113.50
2022-12-09T17:06:46.686Z,104.03
2022-12-09T17:09:14.076Z,108.00
2022-12-09T17:11:48.288Z,106.05
2022-12-09T17:14:16.042Z,94.75
2022-12-09T17:16:43.378Z,107.00
2022-12-09T17:19:10.694Z,97.63
2022-12-09T17:21:38.095Z,106.00
2022-12-09T17:24:05.596Z,111.55
2022-12-09T17:26:32.877Z,111.70
2022-12-09T17:29:02.023Z,104.00
2022-12-09T17:31:30.038Z,115.72
2022-12-09T17:33:58.011Z,102.65
2022-12-09T17:36:25.487Z,114.93
2022-12-09T17:38:52.774Z,117.00
2022-12-09T17:41:23.628Z,118.95
2022-12-09T17:43:51.059Z,105.13
2022-12-09T17:46:18.602Z,120.97
2022-12-09T17:48:45.950Z,124.63
2022-12-09T17:51:14.694Z,116.78
2022-12-09T17:53:43.163Z,127.60
2022-12-09T17:56:11.976Z,125.65
2022-12-09T17:58:39.489Z,133.60
2022-12-09T18:01:12.659Z,117.78
2022-12-09T18:03:55.610Z,123.05
2022-12-09T18:06:24.125Z,143.60
2022-12-09T18:08:51.436Z,149.75
2022-12-09T18:11:18.733Z,145.48
2022-12-09T18:13:46.725Z,138.70
2022-12-09T18:16:14.576Z,134.80
2022-12-09T18:18:42.473Z,138.95
2022-12-09T18:21:15.277Z,153.90
2022-12-09T18:23:43.529Z,170.10
2022-12-09T18:26:12.724Z,155.85
2022-12-09T18:28:40.308Z,138.43
2022-12-09T18:31:08.500Z,131.48
2022-12-09T18:33:36.927Z,147.77
2022-12-09T18:36:12.165Z,141.43
2022-12-09T18:38:40.338Z,139.90
2022-12-09T18:41:11.388Z,138.50
2022-12-09T18:43:39.732Z,151.80
2022-12-09T18:46:08.918Z,141.70
2022-12-09T18:48:36.471Z,142.38
2022-12-09T18:51:04.285Z,156.52
2022-12-09T18:53:31.732Z,135.88
2022-12-09T18:55:59.014Z,151.77
2022-12-09T18:58:49.621Z,148.02
2022-12-09T19:01:24.713Z,150.25
2022-12-09T19:03:54.183Z,154.90
2022-12-09T19:06:23.334Z,148.20
2022-12-09T19:08:54.678Z,156.02
2022-12-09T19:11:29.424Z,161.27
2022-12-09T19:13:57.235Z,150.43
2022-12-09T19:16:25.427Z,157.15
2022-12-09T19:18:56.286Z,157.90
2022-12-09T19:21:25.009Z,161.85
2022-12-09T19:23:53.209Z,155.75
2022-12-09T19:26:23.355Z,152.07
2022-12-09T19:28:53.143Z,160.25
2022-12-09T19:31:22.438Z,157.20
2022-12-09T19:33:49.849Z,150.80
2022-12-09T19:36:17.228Z,150.52
2022-12-09T19:38:44.604Z,145.50
2022-12-09T19:41:11.941Z,129.88
2022-12-09T19:43:39.285Z,148.63
2022-12-09T19:46:07.691Z,145.27
2022-12-09T19:48:38.876Z,151.00
2022-12-09T19:51:07.156Z,137.63
2022-12-09T19:53:34.961Z,139.43
2022-12-09T19:56:07.544Z,144.90
2022-12-09T19:58:39.287Z,141.57
2022-12-09T20:01:23.351Z,137.63
2022-12-09T20:03:52.070Z,134.98
2022-12-09T20:06:21.352Z,132.65
2022-12-09T20:08:49.211Z,135.27
2022-12-09T20:11:17.981Z,129.18
2022-12-09T20:13:46.219Z,134.35
2022-12-09T20:16:15.438Z,132.60
2022-12-09T20:18:42.871Z,138.20
2022-12-09T20:21:11.610Z,133.60
2022-12-09T20:23:39.635Z,121.15
2022-12-09T20:26:08.306Z,128.45
2022-12-09T20:28:36.422Z,126.00
2022-12-09T20:31:04.973Z,119.40
2022-12-09T20:33:32.295Z,123.10
2022-12-09T20:36:09.806Z,116.43
2022-12-09T20:38:37.376Z,115.80
2022-12-09T20:41:05.907Z,139.27
2022-12-09T20:43:39.722Z,134.73
2022-12-09T20:46:08.069Z,118.88
2022-12-09T20:48:36.091Z,120.97
2022-12-09T20:51:04.280Z,106.95
2022-12-09T20:53:31.701Z,112.85
2022-12-09T20:55:59.865Z,117.95
2022-12-09T20:58:27.462Z,108.20
2022-12-09T21:00:55.000Z,117.10
2022-12-09T21:03:22.597Z,117.78
2022-12-09T21:05:49.914Z,105.25
2022-12-09T21:08:18.092Z,118.68
2022-12-09T21:10:45.462Z,106.20
2022-12-09T21:13:12.699Z,110.50
2022-12-09T21:15:40.099Z,104.80
2022-12-09T21:18:07.448Z,112.40
2022-12-09T21:20:34.862Z,106.25
2022-12-09T21:23:32.271Z,112.45
2022-12-09T21:25:49.523Z,109.53
2022-12-09T21:28:16.850Z,114.55
2022-12-09T21:30:44.174Z,107.18
2022-12-09T21:33:11.477Z,105.47
2022-12-09T21:35:43.168Z,106.63
2022-12-09T21:38:10.991Z,104.03
2022-12-09T21:40:38.503Z,106.65
2022-12-09T21:43:06.170Z,102.05
2022-12-09T21:45:34.595Z,102.18
2022-12-09T21:48:01.858Z,92.30
2022-12-09T21:50:30.282Z,107.43
2022-12-09T21:52:57.562Z,98.68
2022-12-09T21:55:24.826Z,102.35
2022-12-09T21:57:52.159Z,97.47
2022-12-09T22:00:19.605Z,96.22
2022-12-09T22:02:51.522Z,95.68
2022-12-09T22:05:18.846Z,99.10
2022-12-09T22:07:48.680Z,105.53
2022-12-09T22:10:16.046Z,96.22
2022-12-09T22:12:43.389Z,102.25
2022-12-09T22:15:11.064Z,104.15
2022-12-09T22:17:38.715Z,95.68
2022-12-09T22:20:48.978Z,102.82
2022-12-09T22:22:54.949Z,103.47
2022-12-09T22:25:22.290Z,98.53
2022-12-09T22:27:49.590Z,259.77
2022-12-09T22:30:17.594Z,103.68
2022-12-09T22:32:50.424Z,97.10
2022-12-09T22:35:18.157Z,96.38
2022-12-09T22:37:45.459Z,98.03
2022-12-09T22:40:12.921Z,104.53
2022-12-09T22:42:40.262Z,104.93
2022-12-09T22:45:07.911Z,102.65
2022-12-09T22:47:35.190Z,109.20
2022-12-09T22:50:02.473Z,98.57
2022-12-09T22:52:29.799Z,94.72
2022-12-09T22:54:57.113Z,103.43
2022-12-09T22:57:24.408Z,108.07
2022-12-09T22:59:52.043Z,105.57
2022-12-09T23:02:19.385Z,104.97
2022-12-09T23:04:46.850Z,112.47
2022-12-09T23:07:14.138Z,109.88
2022-12-09T23:09:41.403Z,112.15
2022-12-09T23:12:08.650Z,107.60
2022-12-09T23:14:35.956Z,101.22
2022-12-09T23:17:03.247Z,109.47
2022-12-09T23:19:30.521Z,98.63
2022-12-09T23:21:57.812Z,106.53
2022-12-09T23:24:25.272Z,106.07
2022-12-09T23:26:53.006Z,96.30
2022-12-09T23:29:20.235Z,107.07
2022-12-09T23:31:47.561Z,115.13
2022-12-09T23:34:15.582Z,109.07
2022-12-09T23:36:43.848Z,108.18
2022-12-09T23:39:12.671Z,108.53
2022-12-09T23:41:40.692Z,106.72
2022-12-09T23:44:18.411Z,122.07
2022-12-09T23:46:46.146Z,110.85
2022-12-09T23:49:13.540Z,110.32
2022-12-09T23:51:43.926Z,113.53
2022-12-09T23:54:12.207Z,113.60
2022-12-09T23:56:40.523Z,108.35
2022-12-09T23:59:09.200Z,112.70
